Time;durP1;ratioP1;P1;durP2;ratioP2;P2;SDS_P1;SDS_P2;PMS_P1;PMS_P2;Temp;Humidity;BMP_temperature;BMP_pressure;BME280_temperature;BME280_humidity;BME280_pressure;Samples;Min_cycle;Max_cycle;Signal;HPM_P1;HPM_P2
2021/07/24 00:00:26;;;;;;;13.30;10.80;;;18.40;99.90;;;;;;4897717;29;20613;-77
2021/07/24 00:02:53;;;;;;;14.17;10.43;;;18.30;99.90;;;;;;4897813;29;20562;-78
2021/07/24 00:05:20;;;;;;;12.07;10.80;;;18.20;99.90;;;;;;4886064;29;20515;-80
2021/07/24 00:07:47;;;;;;;13.57;11.30;;;18.10;99.90;;;;;;4879101;29;20831;-79
2021/07/24 00:10:14;;;;;;;12.53;10.57;;;18.10;99.90;;;;;;4886861;29;20481;-78
2021/07/24 00:12:41;;;;;;;12.10;10.77;;;18.10;99.90;;;;;;4899099;29;20407;-78
2021/07/24 00:15:08;;;;;;;12.30;11.10;;;18.00;99.90;;;;;;4897128;29;20557;-80
2021/07/24 00:17:35;;;;;;;12.87;11.30;;;18.00;99.90;;;;;;4897881;29;20446;-79
2021/07/24 00:20:03;;;;;;;12.60;10.23;;;17.90;99.90;;;;;;4880773;29;20696;-80
2021/07/24 00:22:30;;;;;;;14.00;10.73;;;17.90;99.90;;;;;;4891341;29;20473;-79
2021/07/24 00:24:57;;;;;;;12.70;10.53;;;17.90;99.90;;;;;;4894491;29;20486;-80
2021/07/24 00:27:24;;;;;;;13.40;10.73;;;17.80;99.90;;;;;;4884379;29;20454;-80
2021/07/24 00:29:54;;;;;;;12.53;10.00;;;17.90;99.90;;;;;;4897370;29;20474;-80
2021/07/24 00:32:21;;;;;;;11.27;10.17;;;17.90;99.90;;;;;;4895976;29;20443;-79
2021/07/24 00:34:48;;;;;;;16.47;11.97;;;17.90;99.90;;;;;;4879379;29;20558;-80
2021/07/24 00:37:20;;;;;;;12.40;10.63;;;17.90;99.90;;;;;;4881011;29;20510;-80
2021/07/24 00:39:48;;;;;;;14.00;11.53;;;18.00;99.90;;;;;;4892510;29;20527;-80
2021/07/24 00:42:22;;;;;;;13.80;11.27;;;17.90;99.90;;;;;;4880911;29;20924;-79
2021/07/24 00:44:57;;;;;;;14.37;12.80;;;17.80;99.90;;;;;;4879425;29;20849;-80
2021/07/24 00:47:33;;;;;;;17.40;11.30;;;17.80;99.90;;;;;;4877616;29;20976;-80
2021/07/24 00:50:16;;;;;;;13.00;11.20;;;17.80;99.90;;;;;;4878939;29;20481;-80
2021/07/24 00:52:44;;;;;;;14.27;12.40;;;17.80;99.90;;;;;;4880394;29;20475;-80
2021/07/24 00:55:15;;;;;;;13.20;11.50;;;17.80;99.90;;;;;;4880153;29;20582;-79
2021/07/24 00:57:44;;;;;;;14.70;13.17;;;17.80;99.90;;;;;;4880277;29;20432;-80
2021/07/24 01:00:12;;;;;;;16.17;13.67;;;17.80;99.90;;;;;;4879982;29;20475;-78
2021/07/24 01:02:40;;;;;;;14.10;12.53;;;17.80;99.90;;;;;;4882094;29;20443;-80
2021/07/24 01:05:08;;;;;;;16.67;12.70;;;17.80;99.90;;;;;;4875464;29;20557;-81
2021/07/24 01:07:39;;;;;;;16.30;12.30;;;17.70;99.90;;;;;;4882486;29;20470;-79
2021/07/24 01:10:07;;;;;;;15.50;13.90;;;17.70;99.90;;;;;;4890981;29;20523;-79
2021/07/24 01:12:35;;;;;;;18.97;14.20;;;17.70;99.90;;;;;;4878817;29;20784;-80
2021/07/24 01:15:07;;;;;;;19.07;14.60;;;17.60;99.90;;;;;;4879619;29;20468;-79
2021/07/24 01:17:34;;;;;;;20.20;15.63;;;17.60;99.90;;;;;;4877895;29;20438;-80
2021/07/24 01:20:05;;;;;;;18.50;14.50;;;17.50;99.90;;;;;;4878608;29;20839;-81
2021/07/24 01:22:34;;;;;;;17.93;16.03;;;17.50;99.90;;;;;;4892726;29;20435;-80
2021/07/24 01:25:02;;;;;;;18.30;14.83;;;17.60;99.90;;;;;;4888429;29;20490;-80
2021/07/24 01:27:29;;;;;;;24.50;16.00;;;17.60;99.90;;;;;;4886388;29;20472;-79
2021/07/24 01:29:58;;;;;;;21.80;16.73;;;17.50;99.90;;;;;;4886972;29;20996;-80
2021/07/24 01:32:32;;;;;;;20.93;14.90;;;17.40;99.90;;;;;;4892019;29;20442;-81
2021/07/24 01:35:01;;;;;;;16.70;14.77;;;17.50;99.90;;;;;;4874525;29;20584;-80
2021/07/24 01:37:28;;;;;;;21.13;16.07;;;17.60;99.90;;;;;;4893078;29;20547;-81
2021/07/24 01:39:55;;;;;;;21.77;15.20;;;17.40;99.90;;;;;;4879015;29;20869;-80
2021/07/24 01:42:22;;;;;;;21.00;16.47;;;17.40;99.90;;;;;;4878703;29;20488;-80
2021/07/24 01:44:57;;;;;;;19.20;15.40;;;17.40;99.90;;;;;;4878888;29;20558;-78
2021/07/24 01:47:24;;;;;;;21.00;15.20;;;17.30;99.90;;;;;;4877912;29;20505;-79
2021/07/24 01:52:46;;;;;;;20.67;15.70;;;17.10;99.90;;;;;;4897876;29;20566;-79
2021/07/24 01:55:21;;;;;;;18.47;14.07;;;17.20;99.90;;;;;;4891018;29;20546;-79
2021/07/24 01:57:57;;;;;;;19.30;13.80;;;17.40;99.90;;;;;;4896966;29;20442;-80
2021/07/24 02:00:30;;;;;;;21.67;15.70;;;17.30;99.90;;;;;;4896834;29;20470;-80
2021/07/24 02:03:13;;;;;;;22.17;16.40;;;17.20;99.90;;;;;;4896329;29;21008;-80
2021/07/24 02:06:17;;;;;;;22.70;17.27;;;17.10;99.90;;;;;;4890965;29;20475;-80
2021/07/24 02:09:13;;;;;;;26.47;16.70;;;17.10;99.90;;;;;;4899546;29;20481;-79
2021/07/24 02:11:44;;;;;;;21.50;16.53;;;17.10;99.90;;;;;;4877907;29;20455;-79
2021/07/24 02:14:14;;;;;;;19.73;15.47;;;17.10;99.90;;;;;;4862621;29;20463;-80
2021/07/24 02:16:43;;;;;;;22.43;16.90;;;17.00;99.90;;;;;;4878274;29;20461;-78
2021/07/24 02:19:14;;;;;;;19.77;16.07;;;17.00;99.90;;;;;;4862230;29;20534;-80
2021/07/24 02:21:44;;;;;;;23.37;17.20;;;17.10;99.90;;;;;;4863100;29;20439;-80
2021/07/24 02:24:13;;;;;;;22.00;16.27;;;17.10;99.90;;;;;;4878076;29;20447;-79
2021/07/24 02:26:43;;;;;;;22.87;16.80;;;17.00;99.90;;;;;;4888881;29;20557;-80
2021/07/24 02:29:12;;;;;;;20.60;15.53;;;17.00;99.90;;;;;;4897405;29;20426;-78
2021/07/24 02:31:40;;;;;;;23.67;16.10;;;17.00;99.90;;;;;;4896510;29;20534;-77
2021/07/24 02:34:14;;;;;;;17.83;14.47;;;16.90;99.90;;;;;;4876689;29;20831;-80
2021/07/24 02:36:41;;;;;;;22.70;14.30;;;16.90;99.90;;;;;;4876857;29;20484;-80
2021/07/24 02:39:08;;;;;;;17.63;14.63;;;16.80;99.90;;;;;;4877130;29;20445;-77
2021/07/24 02:41:35;;;;;;;22.97;15.50;;;16.70;99.90;;;;;;4876779;29;20624;-80
2021/07/24 02:44:02;;;;;;;17.83;13.17;;;16.60;99.90;;;;;;4872265;29;20510;-78
2021/07/24 02:46:29;;;;;;;19.13;13.87;;;16.60;99.90;;;;;;4895105;29;20466;-80
2021/07/24 02:48:57;;;;;;;17.27;12.90;;;16.60;99.90;;;;;;4886303;29;20478;-80
2021/07/24 02:51:28;;;;;;;15.53;13.40;;;16.60;99.90;;;;;;4876651;29;20460;-80
2021/07/24 02:53:56;;;;;;;17.00;13.10;;;16.70;99.90;;;;;;4896375;28;20557;-81
2021/07/24 02:56:24;;;;;;;15.30;13.40;;;16.70;99.90;;;;;;4895522;29;20486;-80
2021/07/24 02:58:51;;;;;;;19.20;13.53;;;16.60;99.90;;;;;;4879899;29;20494;-79
2021/07/24 03:01:18;;;;;;;18.00;15.70;;;16.60;99.90;;;;;;4879561;29;20535;-80
2021/07/24 03:03:45;;;;;;;17.53;13.23;;;16.60;99.90;;;;;;4882261;29;20466;-79
2021/07/24 03:06:12;;;;;;;15.30;13.53;;;16.60;99.90;;;;;;4892975;29;20466;-81
2021/07/24 03:08:39;;;;;;;15.87;14.17;;;16.60;99.90;;;;;;4899567;29;20884;-79
2021/07/24 03:11:06;;;;;;;19.27;13.63;;;16.50;99.90;;;;;;4894699;29;20475;-80
2021/07/24 03:13:33;;;;;;;20.20;14.57;;;16.60;99.90;;;;;;4879716;29;20455;-80
2021/07/24 03:16:00;;;;;;;15.00;13.40;;;16.60;99.90;;;;;;4880870;29;20471;-80
2021/07/24 03:18:27;;;;;;;15.17;13.67;;;16.60;99.90;;;;;;4879807;29;20446;-78
2021/07/24 03:20:54;;;;;;;15.03;13.53;;;16.50;99.90;;;;;;4896179;29;20480;-78
2021/07/24 03:23:21;;;;;;;14.20;12.70;;;16.50;99.90;;;;;;4899601;29;21066;-78
2021/07/24 03:25:48;;;;;;;20.07;14.00;;;16.70;99.90;;;;;;4898378;28;20478;-79
2021/07/24 03:28:15;;;;;;;18.37;16.17;;;16.70;99.90;;;;;;4882734;29;20482;-79
2021/07/24 03:30:42;;;;;;;17.63;15.00;;;16.80;99.90;;;;;;4898442;29;20485;-80
2021/07/24 03:33:09;;;;;;;16.00;14.33;;;16.90;99.90;;;;;;4896188;29;20537;-78
2021/07/24 03:35:36;;;;;;;15.70;14.10;;;16.90;99.90;;;;;;4899983;28;20466;-80
2021/07/24 03:38:04;;;;;;;16.60;14.63;;;16.90;99.90;;;;;;4900773;29;20473;-79
2021/07/24 03:40:31;;;;;;;17.73;15.00;;;16.90;99.90;;;;;;4887237;29;20591;-77
2021/07/24 03:42:58;;;;;;;20.30;15.63;;;16.80;99.90;;;;;;4880956;29;20543;-80
2021/07/24 03:45:25;;;;;;;17.47;15.60;;;16.80;99.90;;;;;;4903748;28;21073;-79
2021/07/24 03:47:52;;;;;;;19.30;15.63;;;16.90;99.90;;;;;;4889082;29;20826;-79
2021/07/24 03:50:19;;;;;;;18.10;15.57;;;16.90;99.90;;;;;;4878508;29;20523;-79
2021/07/24 03:52:46;;;;;;;19.50;17.03;;;16.90;99.90;;;;;;4894516;29;20449;-78
2021/07/24 03:55:13;;;;;;;20.93;15.93;;;17.00;99.90;;;;;;4895778;29;20845;-78
2021/07/24 03:57:40;;;;;;;19.07;17.07;;;16.90;99.90;;;;;;4896644;29;20470;-80
2021/07/24 04:00:07;;;;;;;19.10;16.60;;;17.00;99.90;;;;;;4897341;28;20466;-78
2021/07/24 04:02:42;;;;;;;19.33;17.23;;;17.10;99.90;;;;;;4898061;29;20418;-78
2021/07/24 04:05:10;;;;;;;20.23;17.00;;;17.00;99.90;;;;;;4891347;29;20475;-81
2021/07/24 04:07:38;;;;;;;20.60;16.43;;;17.10;99.90;;;;;;4877653;29;20519;-80
2021/07/24 04:10:08;;;;;;;18.43;16.47;;;17.20;99.90;;;;;;4885531;29;20526;-81
2021/07/24 04:12:36;;;;;;;19.10;17.13;;;17.10;99.90;;;;;;4896850;29;20438;-80
2021/07/24 04:15:04;;;;;;;20.27;15.80;;;17.10;99.90;;;;;;4896456;29;20478;-79
2021/07/24 04:17:32;;;;;;;18.73;16.73;;;17.30;99.90;;;;;;4896823;29;20844;-80
2021/07/24 04:19:59;;;;;;;20.60;16.23;;;17.30;99.90;;;;;;4887487;29;20485;-80
2021/07/24 04:22:25;;;;;;;18.67;16.67;;;17.30;99.90;;;;;;4879613;29;20522;-79
2021/07/24 04:24:52;;;;;;;18.57;16.20;;;17.20;99.90;;;;;;4885952;28;20513;-80
2021/07/24 04:27:19;;;;;;;17.97;15.47;;;17.20;99.90;;;;;;4897571;29;21241;-80
2021/07/24 04:29:47;;;;;;;18.90;15.13;;;17.30;99.90;;;;;;4898498;29;20556;-80
2021/07/24 04:32:14;;;;;;;18.80;15.37;;;17.30;99.90;;;;;;4880292;29;20428;-80
2021/07/24 04:34:40;;;;;;;18.80;14.30;;;17.30;99.90;;;;;;4890601;29;20509;-80
2021/07/24 04:37:07;;;;;;;16.77;14.97;;;17.30;99.90;;;;;;4897955;29;20443;-80
2021/07/24 04:39:34;;;;;;;17.40;15.57;;;17.40;99.90;;;;;;4894713;29;20483;-79
2021/07/24 04:42:01;;;;;;;18.57;15.70;;;17.40;99.90;;;;;;4880743;29;20471;-80
2021/07/24 04:44:28;;;;;;;17.63;15.63;;;17.40;99.90;;;;;;4897990;29;20481;-80
2021/07/24 04:46:55;;;;;;;20.87;15.73;;;17.40;99.90;;;;;;4897220;29;20663;-80
2021/07/24 04:49:22;;;;;;;16.97;15.27;;;17.50;99.90;;;;;;4886801;29;20477;-80
2021/07/24 04:51:49;;;;;;;18.47;16.47;;;17.50;99.90;;;;;;4842242;29;1079172;-78
2021/07/24 04:54:16;;;;;;;19.83;16.30;;;17.50;99.90;;;;;;4881661;29;20318;-78
2021/07/24 04:56:43;;;;;;;23.03;17.90;;;17.40;99.90;;;;;;4898019;29;20612;-80
2021/07/24 04:59:10;;;;;;;19.77;16.20;;;17.30;99.90;;;;;;4896379;29;20427;-80
2021/07/24 05:01:37;;;;;;;20.97;17.20;;;17.20;99.90;;;;;;4896972;29;20537;-80
2021/07/24 05:04:04;;;;;;;22.27;17.47;;;17.10;99.90;;;;;;4889537;29;20514;-80
2021/07/24 05:06:32;;;;;;;19.97;17.10;;;17.10;99.90;;;;;;4877701;29;20523;-80
2021/07/24 05:08:59;;;;;;;18.40;16.47;;;17.10;99.90;;;;;;4868355;29;20449;-80
2021/07/24 05:11:26;;;;;;;21.27;17.23;;;17.20;99.90;;;;;;4892399;29;20446;-81
2021/07/24 05:13:55;;;;;;;20.87;17.80;;;17.20;99.90;;;;;;4877477;29;20452;-80
2021/07/24 05:16:28;;;;;;;24.10;17.13;;;17.20;99.90;;;;;;4893499;29;20518;-79
2021/07/24 05:18:59;;;;;;;21.50;16.50;;;17.30;99.90;;;;;;4876088;28;20446;-80
2021/07/24 05:21:26;;;;;;;20.90;17.63;;;17.30;99.90;;;;;;4896274;29;20463;-80
2021/07/24 05:23:53;;;;;;;20.03;17.27;;;17.30;99.90;;;;;;4883636;29;20457;-77
2021/07/24 05:26:20;;;;;;;19.83;17.73;;;17.30;99.90;;;;;;4895596;29;20834;-79
2021/07/24 05:28:48;;;;;;;24.60;17.47;;;17.50;99.90;;;;;;4897678;29;20509;-80
2021/07/24 05:31:16;;;;;;;20.57;18.47;;;17.60;99.90;;;;;;4888563;28;20470;-79
2021/07/24 05:33:47;;;;;;;19.33;17.33;;;17.60;99.90;;;;;;4878446;29;20561;-81
2021/07/24 05:36:17;;;;;;;19.27;17.27;;;17.60;99.90;;;;;;4877209;29;20519;-81
2021/07/24 05:38:43;;;;;;;21.83;17.03;;;17.70;99.90;;;;;;4877799;29;20499;-80
2021/07/24 05:41:10;;;;;;;22.50;19.03;;;17.80;99.90;;;;;;4877557;29;20486;-80
2021/07/24 05:43:40;;;;;;;20.83;18.53;;;17.90;99.90;;;;;;4888864;29;20457;-81
2021/07/24 05:46:07;;;;;;;24.30;17.20;;;17.90;99.90;;;;;;4895532;29;20561;-80
2021/07/24 05:48:34;;;;;;;19.83;17.60;;;17.90;99.90;;;;;;4895404;29;20521;-78
2021/07/24 05:51:07;;;;;;;20.47;18.17;;;17.90;99.90;;;;;;4895854;29;20474;-81
2021/07/24 05:53:35;;;;;;;25.07;17.00;;;18.00;99.90;;;;;;4896952;29;20490;-79
2021/07/24 05:56:10;;;;;;;26.27;20.27;;;18.20;99.90;;;;;;4893641;29;20475;-79
2021/07/24 05:58:37;;;;;;;18.43;16.63;;;18.30;99.90;;;;;;4893155;29;20446;-80
2021/07/24 06:01:13;;;;;;;23.43;18.30;;;18.30;99.90;;;;;;4896437;29;20530;-80
2021/07/24 06:03:41;;;;;;;19.67;17.53;;;18.30;99.90;;;;;;4885712;29;20454;-80
2021/07/24 06:06:25;;;;;;;22.50;19.03;;;18.30;99.90;;;;;;4894738;29;20586;-79
2021/07/24 06:08:51;;;;;;;21.87;19.47;;;18.40;99.90;;;;;;4896454;29;20478;-79
2021/07/24 06:11:21;;;;;;;19.83;17.77;;;18.50;99.90;;;;;;4891460;29;20479;-79
2021/07/24 06:13:55;;;;;;;22.07;19.73;;;18.70;99.90;;;;;;4897053;29;20450;-78
2021/07/24 06:16:24;;;;;;;21.93;19.10;;;18.80;99.90;;;;;;4861658;29;20471;-79
2021/07/24 06:18:51;;;;;;;21.00;18.67;;;18.90;99.90;;;;;;4889865;29;20451;-79
2021/07/24 06:21:18;;;;;;;22.07;19.70;;;19.00;99.90;;;;;;4893691;28;20480;-79
2021/07/24 06:23:45;;;;;;;23.63;18.57;;;19.00;99.90;;;;;;4894748;29;20571;-78
2021/07/24 06:26:12;;;;;;;21.40;18.30;;;19.00;99.90;;;;;;4864583;29;21134;-77
2021/07/24 06:28:39;;;;;;;24.27;19.87;;;19.10;99.90;;;;;;4879568;29;20473;-78
2021/07/24 06:31:06;;;;;;;21.17;19.07;;;19.10;99.90;;;;;;4899790;28;20490;-79
2021/07/24 06:33:33;;;;;;;21.90;18.50;;;19.10;99.90;;;;;;4894239;29;20468;-78
2021/07/24 06:36:00;;;;;;;21.70;19.50;;;19.20;99.90;;;;;;4875618;29;20479;-79
2021/07/24 06:38:27;;;;;;;33.10;21.70;;;19.20;99.90;;;;;;4898982;29;20435;-76
2021/07/24 06:40:55;;;;;;;21.07;17.60;;;19.30;99.90;;;;;;4869564;29;20836;-78
2021/07/24 06:43:22;;;;;;;23.17;20.67;;;19.40;99.90;;;;;;4880204;29;20445;-80
2021/07/24 06:45:49;;;;;;;25.77;20.10;;;19.40;99.90;;;;;;4881352;29;20536;-80
2021/07/24 06:48:16;;;;;;;22.00;19.70;;;19.40;99.90;;;;;;4883607;29;20472;-77
2021/07/24 06:51:01;;;;;;;31.60;22.10;;;19.50;99.90;;;;;;4879826;29;20511;-76
2021/07/24 06:53:28;;;;;;;23.47;20.67;;;19.40;99.90;;;;;;4880373;29;20534;-77
2021/07/24 06:55:56;;;;;;;23.03;20.60;;;19.40;99.90;;;;;;4880536;29;20471;-79
2021/07/24 06:58:24;;;;;;;24.00;19.77;;;19.50;99.90;;;;;;4884787;29;20526;-76
2021/07/24 07:00:51;;;;;;;21.60;19.30;;;19.50;99.90;;;;;;4879540;29;20463;-78
2021/07/24 07:03:17;;;;;;;19.40;17.50;;;19.50;99.90;;;;;;4879969;29;20443;-78
2021/07/24 07:05:45;;;;;;;40.33;22.90;;;19.60;99.90;;;;;;4880598;29;21009;-76
2021/07/24 07:08:11;;;;;;;20.07;17.97;;;19.60;99.90;;;;;;4880868;29;20474;-79
2021/07/24 07:10:38;;;;;;;20.00;16.60;;;19.60;99.90;;;;;;4880771;29;20476;-77
2021/07/24 07:13:05;;;;;;;18.63;16.23;;;19.60;99.90;;;;;;4879816;29;20526;-77
2021/07/24 07:15:32;;;;;;;21.03;18.10;;;19.60;99.90;;;;;;4892192;29;20549;-78
2021/07/24 07:17:59;;;;;;;23.90;17.90;;;19.50;99.90;;;;;;4899595;29;20486;-77
2021/07/24 07:20:26;;;;;;;20.87;18.77;;;19.50;99.90;;;;;;4892492;28;20470;-79
2021/07/24 07:22:53;;;;;;;21.43;17.87;;;19.50;99.90;;;;;;4897953;29;20451;-76
2021/07/24 07:25:20;;;;;;;20.10;16.43;;;19.50;99.90;;;;;;4889728;28;20567;-77
2021/07/24 07:27:47;;;;;;;22.90;18.17;;;19.50;99.90;;;;;;4879325;29;20513;-79
2021/07/24 07:30:14;;;;;;;26.57;18.10;;;19.40;99.90;;;;;;4898086;29;20465;-78
2021/07/24 07:32:41;;;;;;;24.40;17.87;;;19.40;99.90;;;;;;4894413;29;20446;-77
2021/07/24 07:35:10;;;;;;;28.47;20.40;;;19.50;99.90;;;;;;4863652;29;20524;-80
2021/07/24 07:37:50;;;;;;;21.80;18.60;;;19.50;99.90;;;;;;4883370;29;20443;-79
2021/07/24 07:40:21;;;;;;;19.70;16.93;;;19.50;99.90;;;;;;4889198;28;21004;-78
2021/07/24 07:42:48;;;;;;;20.67;17.47;;;19.50;99.90;;;;;;4885571;29;20443;-80
2021/07/24 07:45:17;;;;;;;17.80;16.10;;;19.50;99.90;;;;;;4898175;29;20838;-78
2021/07/24 07:47:50;;;;;;;20.70;18.40;;;19.60;99.90;;;;;;4895674;29;20469;-79
2021/07/24 07:50:19;;;;;;;21.97;19.00;;;19.60;99.90;;;;;;4881281;29;20577;-79
2021/07/24 07:52:46;;;;;;;19.57;17.57;;;19.70;99.90;;;;;;4912064;29;20541;-78
2021/07/24 07:55:14;;;;;;;27.93;18.17;;;19.70;99.90;;;;;;4893304;29;20539;-80
2021/07/24 07:57:42;;;;;;;20.83;18.63;;;19.60;99.90;;;;;;4878909;29;20938;-78
2021/07/24 08:00:10;;;;;;;19.97;17.60;;;19.60;99.90;;;;;;4878243;29;20493;-79
2021/07/24 08:02:40;;;;;;;18.83;16.97;;;19.60;99.90;;;;;;4891057;29;20515;-78
2021/07/24 08:05:08;;;;;;;19.57;17.47;;;19.50;99.90;;;;;;4894179;29;20514;-79
2021/07/24 08:07:34;;;;;;;20.90;18.37;;;19.50;99.90;;;;;;4895303;29;21045;-78
2021/07/24 08:10:02;;;;;;;19.70;17.60;;;19.50;99.90;;;;;;4877961;29;20479;-80
2021/07/24 08:12:28;;;;;;;19.17;17.20;;;19.50;99.90;;;;;;4887511;29;20813;-78
2021/07/24 08:14:56;;;;;;;25.07;17.20;;;19.60;99.90;;;;;;4895156;29;20481;-79
2021/07/24 08:17:23;;;;;;;22.23;19.93;;;19.50;99.90;;;;;;4894180;29;20996;-78
2021/07/24 08:19:50;;;;;;;19.53;17.53;;;19.50;99.90;;;;;;4896498;29;20581;-80
2021/07/24 08:22:17;;;;;;;22.60;19.83;;;19.50;99.90;;;;;;4898081;29;20850;-76
2021/07/24 08:24:44;;;;;;;21.27;19.07;;;19.50;99.90;;;;;;4894045;29;20487;-79
2021/07/24 08:27:11;;;;;;;21.30;19.07;;;19.50;99.90;;;;;;4892342;29;20438;-78
2021/07/24 08:29:38;;;;;;;19.93;17.93;;;19.40;99.90;;;;;;4897468;29;20483;-77
2021/07/24 08:32:09;;;;;;;21.17;18.90;;;19.40;99.90;;;;;;4897090;29;20454;-79
2021/07/24 08:34:36;;;;;;;22.90;19.80;;;19.40;99.90;;;;;;4896584;29;20474;-80
2021/07/24 08:37:06;;;;;;;21.63;19.50;;;19.40;99.90;;;;;;4896201;29;20434;-79
2021/07/24 08:39:35;;;;;;;22.60;18.63;;;19.30;99.90;;;;;;4894661;29;20478;-79
2021/07/24 08:42:04;;;;;;;21.17;19.07;;;19.40;99.90;;;;;;4896011;29;20423;-77
2021/07/24 08:44:36;;;;;;;23.37;18.10;;;19.40;99.90;;;;;;4890241;29;20545;-80
2021/07/24 08:47:04;;;;;;;19.77;17.33;;;19.50;99.90;;;;;;4883299;29;20858;-79
2021/07/24 08:49:31;;;;;;;21.03;18.53;;;19.50;99.90;;;;;;4891883;29;20491;-80
2021/07/24 08:51:59;;;;;;;21.23;18.93;;;19.40;99.90;;;;;;4876519;29;20502;-80
2021/07/24 08:54:26;;;;;;;20.67;18.67;;;19.40;99.90;;;;;;4877711;29;20487;-79
2021/07/24 08:56:53;;;;;;;24.90;20.73;;;19.40;99.90;;;;;;4878514;29;20435;-77
2021/07/24 08:59:21;;;;;;;23.73;20.73;;;19.40;99.90;;;;;;4895787;29;20466;-79
2021/07/24 09:01:55;;;;;;;28.97;20.57;;;19.40;99.90;;;;;;4898142;29;20458;-78
2021/07/24 09:04:26;;;;;;;25.60;22.37;;;19.40;99.90;;;;;;4896582;29;20976;-80
2021/07/24 09:07:02;;;;;;;22.83;20.53;;;19.40;99.90;;;;;;4895992;29;20462;-79
2021/07/24 09:09:29;;;;;;;24.13;21.30;;;19.40;99.90;;;;;;4893177;29;20516;-80
2021/07/24 09:11:55;;;;;;;22.67;20.17;;;19.40;99.90;;;;;;4878855;29;20440;-80
2021/07/24 09:14:22;;;;;;;22.17;19.77;;;19.40;99.90;;;;;;4877176;29;20539;-80
2021/07/24 09:16:50;;;;;;;23.43;21.03;;;19.40;99.90;;;;;;4877813;29;20439;-78
2021/07/24 09:19:18;;;;;;;24.93;22.40;;;19.40;99.90;;;;;;4879772;29;20494;-80
2021/07/24 09:21:44;;;;;;;20.80;18.70;;;19.50;99.90;;;;;;4896143;29;20431;-80
2021/07/24 09:24:17;;;;;;;25.27;20.30;;;19.50;99.90;;;;;;4896376;29;20443;-78
2021/07/24 09:26:44;;;;;;;22.50;20.30;;;19.60;99.90;;;;;;4862232;29;20526;-79
2021/07/24 09:29:14;;;;;;;20.10;18.20;;;19.70;99.90;;;;;;4878037;29;20998;-80
2021/07/24 09:31:45;;;;;;;22.03;19.73;;;19.60;99.90;;;;;;4877611;29;20540;-79
2021/07/24 09:34:14;;;;;;;23.27;20.30;;;19.70;99.90;;;;;;4880787;29;20467;-80
2021/07/24 09:36:44;;;;;;;25.33;20.50;;;19.60;99.90;;;;;;4893322;29;20523;-79
2021/07/24 09:39:11;;;;;;;22.10;19.90;;;19.50;99.90;;;;;;4878605;29;21098;-79
2021/07/24 09:41:47;;;;;;;21.80;19.50;;;19.60;99.90;;;;;;4893019;29;20447;-80
2021/07/24 09:44:30;;;;;;;23.17;19.77;;;19.60;99.90;;;;;;4878454;29;20552;-80
2021/07/24 09:46:58;;;;;;;20.50;18.40;;;19.60;99.90;;;;;;4887220;29;20434;-77
2021/07/24 09:49:35;;;;;;;21.73;18.37;;;19.60;99.90;;;;;;4892545;28;20968;-77
2021/07/24 09:52:17;;;;;;;20.27;18.13;;;19.70;99.90;;;;;;4893546;29;20482;-77
2021/07/24 09:54:45;;;;;;;22.27;18.47;;;19.80;99.90;;;;;;4877143;29;20994;-77
2021/07/24 09:57:31;;;;;;;21.33;19.17;;;19.80;99.90;;;;;;4877312;29;20973;-77
2021/07/24 10:00:28;;;;;;;27.73;17.67;;;20.00;99.90;;;;;;4897535;29;20472;-77
2021/07/24 10:02:56;;;;;;;21.60;19.40;;;20.00;99.90;;;;;;4894617;29;20431;-79
2021/07/24 10:05:34;;;;;;;22.97;19.17;;;19.90;99.90;;;;;;4882551;29;21048;-77
2021/07/24 10:08:05;;;;;;;22.73;20.40;;;20.00;99.90;;;;;;4878255;29;20423;-77
2021/07/24 10:10:35;;;;;;;23.27;19.80;;;20.10;99.90;;;;;;4887609;29;20532;-80
2021/07/24 10:13:03;;;;;;;20.07;17.87;;;20.20;99.90;;;;;;4897389;29;20944;-79
2021/07/24 10:15:39;;;;;;;21.33;18.97;;;20.20;99.90;;;;;;4875205;29;20451;-78
2021/07/24 10:18:07;;;;;;;24.63;19.40;;;20.30;99.90;;;;;;4878152;29;20475;-77
2021/07/24 10:20:46;;;;;;;19.40;17.17;;;20.30;99.90;;;;;;4891488;28;20563;-78
2021/07/24 10:23:19;;;;;;;18.77;16.90;;;20.50;99.90;;;;;;4877924;29;20998;-78
2021/07/24 10:26:13;;;;;;;20.20;18.20;;;20.60;99.90;;;;;;4884041;29;20509;-78
2021/07/24 10:28:45;;;;;;;21.57;18.83;;;20.60;99.90;;;;;;4891757;29;20471;-79
2021/07/24 10:31:20;;;;;;;22.40;20.07;;;20.60;99.90;;;;;;4876439;29;20478;-77
2021/07/24 10:33:47;;;;;;;22.03;18.87;;;20.40;99.90;;;;;;4878259;29;20816;-80
2021/07/24 10:36:16;;;;;;;19.20;17.30;;;20.40;99.90;;;;;;4876028;29;20502;-77
2021/07/24 10:39:01;;;;;;;19.50;17.40;;;20.40;99.90;;;;;;4889608;29;20930;-77
2021/07/24 10:41:31;;;;;;;18.33;16.37;;;20.50;99.90;;;;;;4877161;29;20988;-77
2021/07/24 10:44:05;;;;;;;19.53;17.53;;;20.40;99.90;;;;;;4877368;29;20507;-77
2021/07/24 10:46:44;;;;;;;18.33;16.60;;;20.30;99.90;;;;;;4877746;29;20592;-77
2021/07/24 10:49:34;;;;;;;19.30;17.40;;;20.30;99.90;;;;;;4886134;28;20573;-78
2021/07/24 10:52:11;;;;;;;18.60;16.70;;;20.30;99.90;;;;;;4895001;29;20438;-78
2021/07/24 10:55:11;;;;;;;20.63;17.67;;;20.30;99.90;;;;;;4891295;29;20486;-80
2021/07/24 10:57:45;;;;;;;20.10;17.97;;;20.30;99.90;;;;;;4875871;29;20494;-80
2021/07/24 11:00:18;;;;;;;20.20;16.70;;;20.40;99.90;;;;;;4876313;29;20477;-80
2021/07/24 11:02:50;;;;;;;17.93;16.13;;;20.40;99.90;;;;;;4881289;29;20458;-80
2021/07/24 11:05:27;;;;;;;18.23;16.20;;;20.60;99.90;;;;;;4896058;29;20511;-81
2021/07/24 11:07:56;;;;;;;20.60;15.37;;;20.60;99.90;;;;;;4882455;29;20792;-81
2021/07/24 11:10:24;;;;;;;17.20;15.30;;;20.60;99.90;;;;;;4880793;29;20475;-79
2021/07/24 11:12:51;;;;;;;18.53;15.37;;;20.60;99.90;;;;;;4864988;29;20488;-81
2021/07/24 11:15:20;;;;;;;16.30;14.83;;;20.70;99.90;;;;;;4897363;29;20474;-83
2021/07/24 11:18:23;;;;;;;17.03;15.27;;;20.60;99.90;;;;;;4888508;29;20455;-80
2021/07/24 11:20:51;;;;;;;20.40;16.13;;;20.50;99.90;;;;;;4880259;29;20490;-79
2021/07/24 11:23:19;;;;;;;17.67;15.80;;;20.40;99.90;;;;;;4898284;29;20443;-79
2021/07/24 11:25:47;;;;;;;18.80;15.77;;;20.30;99.90;;;;;;4892256;29;20475;-78
2021/07/24 11:28:22;;;;;;;20.57;15.90;;;20.20;99.90;;;;;;4880561;29;20956;-79
2021/07/24 11:30:59;;;;;;;16.53;14.93;;;20.20;99.90;;;;;;4895937;28;20479;-79
2021/07/24 11:33:29;;;;;;;19.47;17.50;;;20.20;99.90;;;;;;4873280;29;20485;-80
2021/07/24 11:36:10;;;;;;;17.40;15.60;;;20.20;99.90;;;;;;4890834;29;20480;-80
2021/07/24 11:38:40;;;;;;;15.50;13.87;;;20.20;99.90;;;;;;4879867;29;20552;-80
2021/07/24 11:41:10;;;;;;;14.80;13.20;;;20.30;99.90;;;;;;4894243;29;20591;-81
2021/07/24 11:43:38;;;;;;;14.90;13.50;;;20.20;99.90;;;;;;4880472;29;20475;-79
2021/07/24 11:46:07;;;;;;;16.27;14.53;;;20.20;99.90;;;;;;4894307;29;20561;-81
2021/07/24 11:48:35;;;;;;;15.43;13.90;;;20.30;99.90;;;;;;4898300;29;20441;-82
2021/07/24 11:51:09;;;;;;;14.70;13.10;;;20.30;99.90;;;;;;4891244;28;20479;-81
2021/07/24 11:53:37;;;;;;;15.47;13.40;;;20.30;99.90;;;;;;4884631;29;20510;-82
2021/07/24 11:56:09;;;;;;;16.50;12.63;;;20.30;99.90;;;;;;4894240;29;20956;-82
2021/07/24 11:58:39;;;;;;;16.23;14.37;;;20.30;99.90;;;;;;4893301;29;20453;-81
2021/07/24 12:01:22;;;;;;;15.60;14.00;;;20.30;99.90;;;;;;4898137;29;20483;-82
2021/07/24 12:04:03;;;;;;;17.00;13.30;;;20.20;99.90;;;;;;4889715;29;20512;-81
2021/07/24 12:06:34;;;;;;;13.63;11.90;;;20.20;99.90;;;;;;4898489;29;20450;-81
2021/07/24 12:09:01;;;;;;;17.77;13.77;;;20.20;99.90;;;;;;4880464;28;20482;-82
2021/07/24 12:11:29;;;;;;;17.70;13.57;;;20.20;99.90;;;;;;4893246;29;21348;-82
2021/07/24 12:14:03;;;;;;;16.23;13.10;;;20.10;99.90;;;;;;4879634;28;20468;-81
2021/07/24 12:16:40;;;;;;;15.00;12.33;;;20.10;99.90;;;;;;4882148;29;20959;-82
2021/07/24 12:19:49;;;;;;;16.60;13.33;;;20.10;99.90;;;;;;4894432;28;20950;-83
2021/07/24 12:22:18;;;;;;;18.07;15.07;;;20.10;99.90;;;;;;4895791;29;20462;-82
2021/07/24 12:24:47;;;;;;;15.27;13.10;;;20.10;99.90;;;;;;4893019;29;20501;-81
2021/07/24 12:27:16;;;;;;;19.43;14.87;;;20.00;99.90;;;;;;4883176;29;20453;-81
2021/07/24 12:29:58;;;;;;;15.77;13.63;;;19.90;99.90;;;;;;4887470;29;21015;-80
2021/07/24 12:32:38;;;;;;;14.23;12.83;;;19.90;99.90;;;;;;4897945;29;20449;-80
2021/07/24 12:35:15;;;;;;;14.57;12.67;;;19.90;99.90;;;;;;4895727;29;20996;-80
2021/07/24 12:38:07;;;;;;;13.53;10.90;;;19.90;99.90;;;;;;4890944;29;20483;-79
2021/07/24 12:40:36;;;;;;;13.23;11.10;;;19.90;99.90;;;;;;4894752;29;20481;-81
2021/07/24 12:43:10;;;;;;;14.00;12.37;;;19.90;99.90;;;;;;4891035;29;20868;-81